Arroyo Grande, California
Current Conditions -  °F | °C
As of 4:56 AM on Wednesday 22 Oct 2014 (Local Time) from KSBP Reporting Station
Clear Clear  
Wind Chill: 17°   Ceiling: Unl
Heat Index: 17°   Visibility: 10mi
Dew Point:   Wind: 3mph
Humidity: 41%   Direction: 220°SW
Pressure: 29.93"   Gusts: NA
Location:  35.12°N, 120.57°W
Report Text: KSBP 221156Z AUTO 22003KT 10SM CLR 17/04 A2993 RMK AO2 SLP134 T01720039 10206 20156 58007
Loading
Personal Weather Stations






























Interactive Weather Map
Tropical Storm Tracking
New forecast layout! Learn more

10-Day Weather Forecast

Advertisements
Track Severe Weather on mobile